createdAt,value
2019-05-15T00:00:35.280Z,9.40
2019-05-15T00:03:08.418Z,9.50
2019-05-15T00:05:39.274Z,9.50
2019-05-15T00:08:10.982Z,9.50
2019-05-15T00:10:41.576Z,9.60
2019-05-15T00:13:12.102Z,9.60
2019-05-15T00:15:42.656Z,9.60
2019-05-15T00:18:13.093Z,9.50
2019-05-15T00:20:43.810Z,9.50
2019-05-15T00:23:14.433Z,9.50
2019-05-15T00:25:44.904Z,9.50
2019-05-15T00:28:15.710Z,9.50
2019-05-15T00:30:48.017Z,9.50
2019-05-15T00:33:19.389Z,9.50
2019-05-15T00:35:50.302Z,9.50
2019-05-15T00:38:21.121Z,9.50
2019-05-15T00:40:51.746Z,9.50
2019-05-15T00:43:22.277Z,9.40
2019-05-15T00:45:53.046Z,9.40
2019-05-15T00:48:23.610Z,9.40
2019-05-15T00:50:54.418Z,9.40
2019-05-15T00:53:25.073Z,9.50
2019-05-15T00:55:57.918Z,9.50
2019-05-15T00:58:28.324Z,9.50
2019-05-15T01:00:59.242Z,9.50
2019-05-15T01:03:29.637Z,9.40
2019-05-15T01:06:00.539Z,9.40
2019-05-15T01:08:31.152Z,9.50
2019-05-15T01:11:01.677Z,9.50
2019-05-15T01:13:44.367Z,9.50
2019-05-15T01:16:14.804Z,9.50
2019-05-15T01:18:45.235Z,9.50
2019-05-15T01:21:15.657Z,9.50
2019-05-15T01:23:48.257Z,9.50
2019-05-15T01:26:18.929Z,9.50
2019-05-15T01:28:49.717Z,9.50
2019-05-15T01:31:21.279Z,9.50
2019-05-15T01:33:51.732Z,9.40
2019-05-15T01:36:22.117Z,9.40
2019-05-15T01:38:52.673Z,9.50
2019-05-15T01:41:23.091Z,9.50
2019-05-15T01:43:53.616Z,9.50
2019-05-15T01:46:24.232Z,9.50
2019-05-15T01:48:54.802Z,9.50
2019-05-15T01:51:25.367Z,9.50
2019-05-15T01:53:58.253Z,9.60
2019-05-15T01:56:29.298Z,9.60
2019-05-15T01:58:59.900Z,9.60
2019-05-15T02:01:30.609Z,9.60
2019-05-15T02:04:01.173Z,9.60
2019-05-15T02:06:32.800Z,9.60
2019-05-15T02:09:03.236Z,9.60
2019-05-15T02:11:33.850Z,9.60
2019-05-15T02:14:04.356Z,9.70
2019-05-15T02:16:34.918Z,9.70
2019-05-15T02:19:05.544Z,9.60
2019-05-15T02:21:38.018Z,9.60
2019-05-15T02:24:08.515Z,9.60
2019-05-15T02:26:39.208Z,9.60
2019-05-15T02:29:13.152Z,9.60
2019-05-15T02:31:41.881Z,9.60
2019-05-15T02:34:12.410Z,9.50
2019-05-15T02:36:43.141Z,9.50
2019-05-15T02:39:13.541Z,9.50
2019-05-15T02:41:43.965Z,9.50
2019-05-15T02:44:14.553Z,9.50
2019-05-15T02:46:44.905Z,9.50
2019-05-15T02:49:15.465Z,9.50
2019-05-15T02:51:49.063Z,9.50
2019-05-15T02:54:19.594Z,9.50
2019-05-15T02:56:50.653Z,9.60
2019-05-15T02:59:21.281Z,9.60
2019-05-15T03:01:52.079Z,9.70
2019-05-15T03:04:22.468Z,9.70
2019-05-15T03:06:53.127Z,9.60
2019-05-15T03:09:23.562Z,9.70
2019-05-15T03:11:54.334Z,9.70
2019-05-15T03:14:24.821Z,9.60
2019-05-15T03:16:55.497Z,9.70
2019-05-15T03:19:29.534Z,9.60
2019-05-15T03:21:59.896Z,9.50
2019-05-15T03:24:30.628Z,9.60
2019-05-15T03:27:01.403Z,9.50
2019-05-15T03:29:32.189Z,9.50
2019-05-15T03:32:17.908Z,9.60
2019-05-15T03:34:46.986Z,9.60
2019-05-15T03:37:12.794Z,9.70
2019-05-15T03:39:46.855Z,9.70
2019-05-15T03:42:18.579Z,9.60
2019-05-15T03:44:50.130Z,9.70
2019-05-15T03:47:20.286Z,9.70
2019-05-15T03:49:51.235Z,9.80
2019-05-15T03:55:49.443Z,9.70
2019-05-15T03:58:21.499Z,9.60
2019-05-15T04:00:52.095Z,9.70
2019-05-15T04:03:22.596Z,9.70
2019-05-15T04:05:53.264Z,9.80
2019-05-15T04:08:23.732Z,9.80
2019-05-15T04:10:54.190Z,9.80
2019-05-15T04:13:25.079Z,9.70
2019-05-15T04:15:59.090Z,9.60
2019-05-15T04:18:29.182Z,9.70
2019-05-15T04:21:00.410Z,9.70
2019-05-15T04:23:31.044Z,9.80
2019-05-15T04:26:01.984Z,9.80
2019-05-15T04:28:33.880Z,9.80
2019-05-15T04:31:04.564Z,9.80
2019-05-15T04:33:35.097Z,9.80
2019-05-15T04:36:05.687Z,9.80
2019-05-15T04:38:39.311Z,9.80
2019-05-15T04:41:09.906Z,9.90
2019-05-15T04:43:45.162Z,10.00
2019-05-15T04:46:13.070Z,10.00
2019-05-15T04:48:43.815Z,10.00
2019-05-15T04:51:14.396Z,9.90
2019-05-15T04:53:44.976Z,10.00
2019-05-15T04:56:15.509Z,10.00
2019-05-15T04:58:45.982Z,10.00
2019-05-15T05:01:19.876Z,10.00
2019-05-15T05:03:49.653Z,10.00
2019-05-15T05:06:22.426Z,10.00
2019-05-15T05:08:52.810Z,10.00
2019-05-15T05:11:24.065Z,10.00
2019-05-15T05:13:54.792Z,10.00
2019-05-15T05:16:25.301Z,10.00
2019-05-15T05:18:55.691Z,10.00
2019-05-15T05:21:27.822Z,10.00
2019-05-15T05:23:58.714Z,10.00
2019-05-15T05:26:29.449Z,10.10
2019-05-15T05:29:01.407Z,10.10
2019-05-15T05:31:32.815Z,10.20
2019-05-15T05:34:03.269Z,10.20
2019-05-15T05:36:33.692Z,10.10
2019-05-15T05:39:05.792Z,10.20
2019-05-15T05:41:39.008Z,10.30
2019-05-15T05:44:08.622Z,10.30
2019-05-15T05:46:39.713Z,10.30
2019-05-15T05:49:13.968Z,10.30
2019-05-15T05:51:44.406Z,10.30
2019-05-15T05:54:14.820Z,10.30
2019-05-15T05:56:48.114Z,10.40
2019-05-15T05:59:18.587Z,10.40
2019-05-15T06:01:49.135Z,10.40
2019-05-15T06:04:20.156Z,10.40
2019-05-15T06:07:06.188Z,10.30
2019-05-15T06:09:22.746Z,10.30
2019-05-15T06:11:53.286Z,10.40
2019-05-15T06:14:23.746Z,10.50
2019-05-15T06:16:54.288Z,10.50
2019-05-15T06:19:24.834Z,10.50
2019-05-15T06:22:58.477Z,10.60
2019-05-15T06:25:30.472Z,10.50
2019-05-15T06:28:01.100Z,10.50
2019-05-15T06:30:31.882Z,10.50
2019-05-15T06:33:09.293Z,10.50
2019-05-15T06:35:34.357Z,10.60
2019-05-15T06:38:04.878Z,10.70
2019-05-15T06:40:35.783Z,10.80
2019-05-15T06:43:08.813Z,10.80
2019-05-15T06:45:39.456Z,10.90
2019-05-15T06:48:10.239Z,11.00
2019-05-15T06:50:41.687Z,11.00
2019-05-15T06:53:12.141Z,11.00
2019-05-15T06:55:42.915Z,11.10
2019-05-15T06:58:13.419Z,11.20
2019-05-15T07:00:43.932Z,11.20
2019-05-15T07:03:21.464Z,11.20
2019-05-15T07:05:50.311Z,11.20
2019-05-15T07:08:19.639Z,11.30
2019-05-15T07:10:50.085Z,11.20
2019-05-15T07:13:20.521Z,11.20
2019-05-15T07:15:51.127Z,11.20
2019-05-15T07:18:21.619Z,11.30
2019-05-15T07:20:52.127Z,11.30
2019-05-15T07:23:22.783Z,11.40
2019-05-15T07:25:53.247Z,11.40
2019-05-15T07:28:23.691Z,11.40
2019-05-15T07:30:54.464Z,11.50
2019-05-15T07:33:36.857Z,11.50
2019-05-15T07:35:59.020Z,11.50
2019-05-15T07:38:29.217Z,11.50
2019-05-15T07:41:04.051Z,11.60
2019-05-15T07:43:32.081Z,11.60
2019-05-15T07:46:02.613Z,11.60
2019-05-15T07:48:33.025Z,11.70
2019-05-15T07:51:03.749Z,11.70
2019-05-15T07:53:34.365Z,11.60
2019-05-15T07:56:05.083Z,11.60
2019-05-15T07:58:35.537Z,11.60
2019-05-15T08:01:06.065Z,11.60
2019-05-15T08:03:47.130Z,11.70
2019-05-15T08:06:09.017Z,11.70
2019-05-15T08:08:39.797Z,11.60
2019-05-15T08:11:20.266Z,11.60
2019-05-15T08:13:42.521Z,11.60
2019-05-15T08:16:13.041Z,11.60
2019-05-15T08:18:43.656Z,11.60
2019-05-15T08:21:15.154Z,11.60
2019-05-15T08:23:48.236Z,11.50
2019-05-15T08:26:18.346Z,11.50
2019-05-15T08:28:48.934Z,11.50
2019-05-15T08:31:19.482Z,11.50
2019-05-15T08:33:51.076Z,11.50
2019-05-15T08:36:21.508Z,11.50
2019-05-15T08:38:52.149Z,11.60
2019-05-15T08:41:22.523Z,11.60
2019-05-15T08:43:52.934Z,11.70
2019-05-15T08:46:23.479Z,11.80
2019-05-15T08:48:54.039Z,11.80
2019-05-15T08:51:24.560Z,11.80
2019-05-15T08:53:55.119Z,11.90
2019-05-15T08:56:28.662Z,11.80
2019-05-15T08:58:58.063Z,11.90
2019-05-15T09:01:28.853Z,11.90
2019-05-15T09:03:59.478Z,11.90
2019-05-15T09:06:30.096Z,11.90
2019-05-15T09:09:01.765Z,11.80
2019-05-15T09:11:33.393Z,11.80
2019-05-15T09:14:04.612Z,11.80
2019-05-15T09:16:35.522Z,11.80
2019-05-15T09:19:08.351Z,11.70
2019-05-15T09:21:38.724Z,11.70
2019-05-15T09:24:09.695Z,11.70
2019-05-15T09:26:40.653Z,11.80
2019-05-15T09:29:11.156Z,11.90
2019-05-15T09:31:41.792Z,12.00
2019-05-15T09:34:12.231Z,12.00
2019-05-15T09:36:45.227Z,12.10
2019-05-15T09:39:14.774Z,12.10
2019-05-15T09:41:45.264Z,12.30
2019-05-15T09:44:15.680Z,12.30
2019-05-15T09:46:46.057Z,12.20
2019-05-15T09:49:18.199Z,12.30
2019-05-15T09:51:49.156Z,12.30
2019-05-15T09:54:19.839Z,12.30
2019-05-15T09:56:50.613Z,12.30
2019-05-15T09:59:21.400Z,12.30
2019-05-15T10:01:51.977Z,12.20
2019-05-15T10:04:28.694Z,12.30
2019-05-15T10:06:59.730Z,12.30
2019-05-15T10:09:30.266Z,12.30
2019-05-15T10:12:00.889Z,12.30
2019-05-15T10:14:31.457Z,12.40
2019-05-15T10:17:02.155Z,12.40
2019-05-15T10:19:32.941Z,12.30
2019-05-15T10:22:03.421Z,12.20
2019-05-15T10:24:33.817Z,12.30
2019-05-15T10:27:04.502Z,12.30
2019-05-15T10:29:35.137Z,12.40
2019-05-15T10:32:08.496Z,12.50
2019-05-15T10:34:38.510Z,12.40
2019-05-15T10:37:09.058Z,12.30
2019-05-15T10:39:39.811Z,12.30
2019-05-15T10:42:10.216Z,12.40
2019-05-15T10:44:40.797Z,12.30
2019-05-15T10:47:11.243Z,12.40
2019-05-15T10:49:41.649Z,12.40
2019-05-15T10:52:12.101Z,12.40
2019-05-15T10:54:42.689Z,12.50
2019-05-15T10:57:14.139Z,12.30
2019-05-15T10:59:44.576Z,12.20
2019-05-15T11:02:15.251Z,12.10
2019-05-15T11:04:45.779Z,12.10
2019-05-15T11:07:19.234Z,12.10
2019-05-15T11:09:49.074Z,12.10
2019-05-15T11:12:19.668Z,11.90
2019-05-15T11:14:50.114Z,11.80
2019-05-15T11:17:21.089Z,11.80
2019-05-15T11:19:51.579Z,11.70
2019-05-15T11:22:22.131Z,11.80
2019-05-15T11:24:53.201Z,11.90
2019-05-15T11:27:24.056Z,11.80
2019-05-15T11:29:54.489Z,11.80
2019-05-15T11:32:24.969Z,11.80
2019-05-15T11:34:58.100Z,11.80
2019-05-15T11:37:28.265Z,11.80
2019-05-15T11:39:59.141Z,11.80
2019-05-15T11:42:29.809Z,11.80
2019-05-15T11:45:00.296Z,11.90
2019-05-15T11:47:32.224Z,11.90
2019-05-15T11:50:02.636Z,12.00
2019-05-15T11:52:36.379Z,12.00
2019-05-15T11:55:08.409Z,11.90
2019-05-15T11:57:46.056Z,11.90
2019-05-15T12:00:17.239Z,11.90
2019-05-15T12:02:43.537Z,11.90
2019-05-15T12:05:14.587Z,11.90
2019-05-15T12:07:47.876Z,11.90
2019-05-15T12:10:18.400Z,11.80
2019-05-15T12:12:49.799Z,11.90
2019-05-15T12:15:20.488Z,11.90
2019-05-15T12:17:51.328Z,11.90
2019-05-15T12:20:22.080Z,11.90
2019-05-15T12:22:52.723Z,11.90
2019-05-15T12:25:28.341Z,12.00
2019-05-15T12:27:55.292Z,12.00
2019-05-15T12:30:29.423Z,12.00
2019-05-15T12:33:00.338Z,12.00
2019-05-15T12:35:30.514Z,12.10
2019-05-15T12:38:00.927Z,12.10
2019-05-15T13:00:50.976Z,12.00
2019-05-15T13:03:21.523Z,12.00
2019-05-15T13:05:52.407Z,12.00
2019-05-15T13:08:22.865Z,12.00
2019-05-15T13:10:55.044Z,12.10
2019-05-15T13:13:25.475Z,12.00
2019-05-15T13:15:55.905Z,12.00
2019-05-15T13:18:28.617Z,12.00
2019-05-15T13:20:59.732Z,12.10
2019-05-15T13:23:30.587Z,12.10
2019-05-15T13:26:01.095Z,12.10
2019-05-15T13:28:31.694Z,12.10
2019-05-15T13:31:02.496Z,12.20
2019-05-15T13:33:33.351Z,12.20
2019-05-15T13:36:03.823Z,12.20
2019-05-15T13:38:34.231Z,12.20
2019-05-15T13:41:04.683Z,12.10
2019-05-15T13:43:35.148Z,12.10
2019-05-15T13:46:05.699Z,12.10
2019-05-15T13:48:38.429Z,12.00
2019-05-15T13:51:08.422Z,11.90
2019-05-15T13:53:38.962Z,11.90
2019-05-15T13:56:09.425Z,11.90
2019-05-15T13:58:40.065Z,11.80
2019-05-15T14:01:10.856Z,11.80
2019-05-15T14:03:41.554Z,11.80
2019-05-15T14:06:12.137Z,11.70
2019-05-15T14:08:42.776Z,11.70
2019-05-15T14:11:13.358Z,11.90
2019-05-15T14:13:43.855Z,11.90
2019-05-15T14:16:14.333Z,12.00
2019-05-15T14:18:44.757Z,12.00
2019-05-15T14:21:18.410Z,11.90
2019-05-15T14:23:48.898Z,11.90
2019-05-15T14:26:23.139Z,12.00
2019-05-15T14:28:51.472Z,12.00
2019-05-15T14:31:21.920Z,12.00
2019-05-15T14:33:52.471Z,12.00
2019-05-15T14:36:22.918Z,12.00
2019-05-15T14:38:54.492Z,12.00
2019-05-15T14:41:25.141Z,12.00
2019-05-15T14:43:59.024Z,12.00
2019-05-15T14:46:28.972Z,12.00
2019-05-15T14:48:59.769Z,12.00
2019-05-15T14:51:30.493Z,12.00
2019-05-15T14:54:01.201Z,12.10
2019-05-15T14:56:31.635Z,12.10
2019-05-15T14:59:02.304Z,12.10
2019-05-15T15:01:32.868Z,12.10
2019-05-15T15:04:03.279Z,12.20
2019-05-15T15:06:33.713Z,12.20
2019-05-15T15:09:04.929Z,12.20
2019-05-15T15:11:41.970Z,12.10
2019-05-15T15:14:12.592Z,12.10
2019-05-15T15:16:43.330Z,12.10
2019-05-15T15:19:14.947Z,12.10
2019-05-15T15:21:48.511Z,12.00
2019-05-15T15:24:18.902Z,12.00
2019-05-15T15:26:51.689Z,12.10
2019-05-15T15:29:22.097Z,12.10
2019-05-15T15:31:52.850Z,12.20
2019-05-15T15:34:23.526Z,12.20
2019-05-15T15:36:53.969Z,12.20
2019-05-15T15:39:24.426Z,12.20
2019-05-15T15:41:55.201Z,12.30
2019-05-15T15:44:27.903Z,12.30
2019-05-15T15:46:59.120Z,12.30
2019-05-15T15:49:30.338Z,12.40
2019-05-15T15:52:00.992Z,12.40
2019-05-15T15:54:32.853Z,12.40
2019-05-15T15:57:03.352Z,12.40
2019-05-15T15:59:34.260Z,12.40
2019-05-15T16:02:04.742Z,12.40
2019-05-15T16:04:35.247Z,12.50
2019-05-15T16:07:05.780Z,12.50
2019-05-15T16:09:36.242Z,12.50
2019-05-15T16:12:09.790Z,12.40
2019-05-15T16:14:40.774Z,12.40
2019-05-15T16:17:11.624Z,12.40
2019-05-15T16:19:42.312Z,12.40
2019-05-15T16:22:13.128Z,12.50
2019-05-15T16:24:44.036Z,12.50
2019-05-15T16:27:14.656Z,12.50
2019-05-15T16:29:45.153Z,12.50
2019-05-15T16:32:19.310Z,12.40
2019-05-15T16:34:48.330Z,12.50
2019-05-15T16:37:19.148Z,12.50
2019-05-15T16:39:49.942Z,12.50
2019-05-15T16:42:20.738Z,12.50
2019-05-15T16:44:51.560Z,12.60
2019-05-15T16:47:22.697Z,12.60
2019-05-15T16:49:55.087Z,12.70
2019-05-15T16:52:30.525Z,12.70
2019-05-15T16:54:59.161Z,12.80
2019-05-15T16:57:29.655Z,12.80
2019-05-15T17:00:00.460Z,12.80
2019-05-15T17:02:32.294Z,12.70
2019-05-15T17:05:03.031Z,12.70
2019-05-15T17:07:34.183Z,12.70
2019-05-15T17:10:05.393Z,12.80
2019-05-15T17:12:38.367Z,12.80
2019-05-15T17:15:09.727Z,12.90
2019-05-15T17:17:40.410Z,12.90
2019-05-15T17:20:12.481Z,13.00
2019-05-15T17:22:43.293Z,13.00
2019-05-15T17:25:14.244Z,13.00
2019-05-15T17:27:46.079Z,13.10
2019-05-15T17:30:18.191Z,13.10
2019-05-15T17:32:50.089Z,13.00
2019-05-15T17:35:20.672Z,13.00
2019-05-15T17:37:51.853Z,13.00
2019-05-15T17:40:22.557Z,13.00
2019-05-15T17:42:53.797Z,13.00
2019-05-15T17:45:24.629Z,13.00
2019-05-15T17:47:58.510Z,13.10
2019-05-15T17:50:44.749Z,13.10
2019-05-15T17:53:04.038Z,13.10
2019-05-15T17:55:35.095Z,13.20
2019-05-15T17:58:05.935Z,13.20
2019-05-15T18:00:39.327Z,13.20
2019-05-15T18:03:10.042Z,13.30
2019-05-15T18:05:40.687Z,13.30
2019-05-15T18:08:11.460Z,13.20
2019-05-15T18:10:42.142Z,13.20
2019-05-15T18:13:13.066Z,13.20
2019-05-15T18:15:45.786Z,13.20
2019-05-15T18:18:18.532Z,13.20
2019-05-15T18:20:50.410Z,13.20
2019-05-15T18:23:23.565Z,13.30
2019-05-15T18:25:54.270Z,13.40
2019-05-15T18:28:26.223Z,13.30
2019-05-15T18:30:58.830Z,13.30
2019-05-15T18:33:30.027Z,13.30
2019-05-15T18:36:00.555Z,13.40
2019-05-15T18:38:31.320Z,13.40
2019-05-15T18:41:03.894Z,13.30
2019-05-15T18:43:37.701Z,13.30
2019-05-15T18:46:09.028Z,13.20
2019-05-15T18:48:39.913Z,13.30
2019-05-15T18:51:11.709Z,13.30
2019-05-15T18:53:42.787Z,13.30
2019-05-15T18:56:13.423Z,13.30
2019-05-15T18:58:44.347Z,13.30
2019-05-15T19:01:14.855Z,13.30
2019-05-15T19:03:45.461Z,13.30
2019-05-15T19:06:18.319Z,13.30
2019-05-15T19:08:47.937Z,13.30
2019-05-15T19:11:18.536Z,13.40
2019-05-15T19:13:49.195Z,13.50
2019-05-15T19:16:19.932Z,13.40
2019-05-15T19:18:50.525Z,13.40
2019-05-15T19:21:21.082Z,13.40
2019-05-15T19:23:52.989Z,13.40
2019-05-15T19:26:23.871Z,13.40
2019-05-15T19:28:54.868Z,13.40
2019-05-15T19:31:30.208Z,13.40
2019-05-15T19:33:58.503Z,13.40
2019-05-15T19:36:29.812Z,13.50
2019-05-15T19:39:00.726Z,13.50
2019-05-15T19:41:33.159Z,13.50
2019-05-15T19:44:05.116Z,13.50
2019-05-15T19:46:38.500Z,13.50
2019-05-15T19:49:08.774Z,13.50
2019-05-15T19:51:48.628Z,13.50
2019-05-15T19:54:19.299Z,13.50
2019-05-15T19:56:49.906Z,13.60
2019-05-15T19:59:22.458Z,13.60
2019-05-15T20:01:53.150Z,13.50
2019-05-15T20:04:23.926Z,13.50
2019-05-15T20:06:54.608Z,13.40
2019-05-15T20:09:25.200Z,13.40
2019-05-15T20:11:55.757Z,13.40
2019-05-15T20:14:28.685Z,13.40
2019-05-15T20:16:59.031Z,13.50
2019-05-15T20:19:30.055Z,13.50
2019-05-15T20:22:00.714Z,13.50
2019-05-15T20:24:31.706Z,13.50
2019-05-15T20:27:03.760Z,13.50
2019-05-15T20:29:34.655Z,13.60
2019-05-15T20:32:05.886Z,13.70
2019-05-15T20:34:38.025Z,13.60
2019-05-15T20:37:08.687Z,13.70
2019-05-15T20:39:39.647Z,13.60
2019-05-15T20:42:10.232Z,13.60
2019-05-15T20:44:41.117Z,13.60
2019-05-15T20:47:11.977Z,13.60
2019-05-15T20:49:42.667Z,13.60
2019-05-15T20:52:13.274Z,13.60
2019-05-15T20:54:43.699Z,13.60
2019-05-15T20:57:14.251Z,13.60
2019-05-15T20:59:44.729Z,13.60
2019-05-15T21:02:15.621Z,13.60
2019-05-15T21:04:46.367Z,13.60
2019-05-15T21:07:23.355Z,13.60
2019-05-15T21:09:49.825Z,13.50
2019-05-15T21:12:20.816Z,13.60
2019-05-15T21:14:51.356Z,13.60
2019-05-15T21:17:22.427Z,13.60
2019-05-15T21:19:52.870Z,13.60
2019-05-15T21:22:23.375Z,13.60
2019-05-15T21:24:54.106Z,13.70
2019-05-15T21:27:25.008Z,13.70
2019-05-15T21:29:55.619Z,13.70
2019-05-15T21:32:28.526Z,13.80
2019-05-15T21:34:58.868Z,13.80
2019-05-15T21:37:30.731Z,13.70
2019-05-15T21:40:27.971Z,13.70
2019-05-15T21:42:58.494Z,13.80
2019-05-15T21:45:29.606Z,13.80
2019-05-15T21:48:09.082Z,13.80
2019-05-15T21:50:38.940Z,13.90
2019-05-15T21:53:09.393Z,13.80
2019-05-15T21:55:41.022Z,13.90
2019-05-15T21:58:11.740Z,13.80
2019-05-15T22:00:45.246Z,13.90
2019-05-15T22:03:17.822Z,13.80
2019-05-15T22:05:48.844Z,13.80
2019-05-15T22:08:20.381Z,13.80
2019-05-15T22:10:51.885Z,13.80
2019-05-15T22:13:22.319Z,13.80
2019-05-15T22:15:53.370Z,13.80
2019-05-15T22:18:24.478Z,13.80
2019-05-15T22:20:55.076Z,13.80
2019-05-15T22:23:27.876Z,13.80
2019-05-15T22:25:58.636Z,13.90
2019-05-15T22:28:29.153Z,13.90
2019-05-15T22:30:59.536Z,13.90
2019-05-15T22:33:30.163Z,13.90
2019-05-15T22:36:00.715Z,13.90
2019-05-15T22:38:31.259Z,13.90
2019-05-15T22:41:01.998Z,13.90
2019-05-15T22:43:49.933Z,13.90
2019-05-15T22:46:20.851Z,13.90
2019-05-15T22:48:52.130Z,13.90
2019-05-15T22:51:23.327Z,13.90
2019-05-15T22:53:53.815Z,14.00
2019-05-15T22:56:24.575Z,14.00
2019-05-15T22:58:55.325Z,13.90
2019-05-15T23:01:38.846Z,14.00
2019-05-15T23:04:09.419Z,13.90
2019-05-15T23:06:39.991Z,13.90
2019-05-15T23:09:10.735Z,14.00
2019-05-15T23:11:41.173Z,14.00
2019-05-15T23:14:11.733Z,14.00
2019-05-15T23:16:42.692Z,14.00
2019-05-15T23:19:13.244Z,14.00
2019-05-15T23:21:43.932Z,14.00
2019-05-15T23:24:14.524Z,14.10
2019-05-15T23:26:47.651Z,14.10
2019-05-15T23:29:18.621Z,14.10
2019-05-15T23:31:49.102Z,14.00
2019-05-15T23:34:19.985Z,14.00
2019-05-15T23:36:50.442Z,14.00
2019-05-15T23:39:21.354Z,14.00
2019-05-15T23:41:51.802Z,14.00
2019-05-15T23:44:22.588Z,14.00
2019-05-15T23:46:53.110Z,14.00
2019-05-15T23:49:23.775Z,14.00
2019-05-15T23:51:54.544Z,14.00
2019-05-15T23:54:25.114Z,14.00
2019-05-15T23:56:58.213Z,13.90
2019-05-15T23:59:28.227Z,14.00
